createdAt,value
2019-02-18T00:02:16.351Z,20.67
2019-02-18T00:04:49.128Z,20.10
2019-02-18T00:07:22.256Z,21.77
2019-02-18T00:09:55.773Z,46.43
2019-02-18T00:12:28.839Z,79.93
2019-02-18T00:15:01.761Z,78.47
2019-02-18T00:17:34.745Z,37.67
2019-02-18T00:20:07.897Z,22.60
2019-02-18T00:22:41.264Z,21.67
2019-02-18T00:25:15.288Z,19.70
2019-02-18T00:27:48.307Z,20.43
2019-02-18T00:30:21.299Z,22.30
2019-02-18T00:32:54.307Z,18.47
2019-02-18T00:35:27.293Z,18.60
2019-02-18T00:38:00.344Z,22.80
2019-02-18T00:40:33.324Z,20.60
2019-02-18T00:43:06.591Z,23.83
2019-02-18T00:45:39.485Z,24.73
2019-02-18T00:48:12.706Z,25.17
2019-02-18T00:50:45.390Z,23.47
2019-02-18T00:53:18.586Z,24.83
2019-02-18T00:55:51.495Z,21.77
2019-02-18T00:58:25.472Z,22.83
2019-02-18T01:00:59.657Z,21.47
2019-02-18T01:03:32.599Z,25.57
2019-02-18T01:06:05.458Z,23.27
2019-02-18T01:08:38.715Z,25.70
2019-02-18T01:11:12.060Z,25.47
2019-02-18T01:13:44.975Z,25.67
2019-02-18T01:16:18.058Z,24.73
2019-02-18T01:18:50.957Z,29.97
2019-02-18T01:21:23.945Z,27.03
2019-02-18T01:23:56.822Z,58.27
2019-02-18T01:26:29.840Z,29.27
2019-02-18T01:29:03.941Z,26.80
2019-02-18T01:31:36.886Z,29.60
2019-02-18T01:34:10.006Z,27.87
2019-02-18T01:36:42.888Z,22.80
2019-02-18T01:39:16.325Z,26.27
2019-02-18T01:41:49.445Z,19.67
2019-02-18T01:44:22.326Z,23.37
2019-02-18T01:46:55.435Z,26.67
2019-02-18T01:49:28.619Z,23.77
2019-02-18T01:52:01.688Z,23.30
2019-02-18T01:54:34.840Z,21.00
2019-02-18T01:57:07.759Z,20.73
2019-02-18T01:59:40.722Z,20.20
2019-02-18T02:02:13.922Z,25.10
2019-02-18T02:04:46.915Z,22.50
2019-02-18T02:07:19.820Z,22.33
2019-02-18T02:09:53.241Z,24.20
2019-02-18T02:12:26.737Z,21.63
2019-02-18T02:14:59.515Z,19.03
2019-02-18T02:17:32.422Z,19.50
2019-02-18T02:20:05.402Z,22.13
2019-02-18T02:22:38.442Z,21.67
2019-02-18T02:25:11.442Z,25.97
2019-02-18T02:27:44.551Z,21.20
2019-02-18T02:30:17.706Z,26.33
2019-02-18T02:32:50.856Z,20.77
2019-02-18T02:35:23.857Z,18.20
2019-02-18T02:38:07.245Z,20.67
2019-02-18T02:40:31.478Z,20.00
2019-02-18T02:43:04.481Z,23.93
2019-02-18T02:45:37.601Z,20.10
2019-02-18T02:48:10.600Z,25.00
2019-02-18T02:50:43.508Z,25.17
2019-02-18T02:53:16.653Z,20.60
2019-02-18T02:55:49.641Z,20.13
2019-02-18T02:58:23.659Z,18.60
2019-02-18T03:00:56.428Z,19.77
2019-02-18T03:03:29.178Z,22.20
2019-02-18T03:06:02.331Z,22.13
2019-02-18T03:08:35.430Z,21.97
2019-02-18T03:11:08.909Z,21.37
2019-02-18T03:13:41.772Z,21.63
2019-02-18T03:16:15.152Z,21.20
2019-02-18T03:18:48.373Z,21.27
2019-02-18T03:21:21.137Z,20.73
2019-02-18T03:23:54.048Z,21.97
2019-02-18T03:26:27.116Z,27.50
2019-02-18T03:30:09.604Z,22.33
2019-02-18T03:32:53.438Z,21.07
2019-02-18T03:35:26.570Z,20.40
2019-02-18T03:37:59.389Z,20.33
2019-02-18T03:40:32.687Z,22.33
2019-02-18T03:43:05.681Z,21.53
2019-02-18T03:45:38.530Z,22.70
2019-02-18T03:48:11.965Z,23.50
2019-02-18T03:50:44.891Z,25.97
2019-02-18T03:53:17.793Z,20.27
2019-02-18T03:55:51.376Z,20.37
2019-02-18T03:58:24.458Z,24.63
2019-02-18T04:00:57.600Z,25.30
2019-02-18T04:03:30.636Z,24.80
2019-02-18T04:06:05.177Z,22.67
2019-02-18T04:08:43.062Z,29.07
2019-02-18T04:11:14.430Z,27.17
2019-02-18T04:13:47.357Z,29.23
2019-02-18T04:16:20.381Z,25.53
2019-02-18T04:18:53.393Z,23.47
2019-02-18T04:21:26.306Z,21.07
2019-02-18T04:23:59.498Z,26.67
2019-02-18T04:26:32.416Z,21.27
2019-02-18T04:29:05.506Z,25.73
2019-02-18T04:31:38.852Z,23.00
2019-02-18T04:34:13.012Z,20.17
2019-02-18T04:36:46.031Z,22.47
2019-02-18T04:39:19.056Z,22.37
2019-02-18T04:41:52.270Z,23.50
2019-02-18T04:44:25.315Z,23.63
2019-02-18T04:46:58.409Z,23.83
2019-02-18T04:49:31.514Z,20.53
2019-02-18T04:52:04.501Z,22.60
2019-02-18T04:54:37.589Z,28.80
2019-02-18T04:57:10.553Z,29.57
2019-02-18T04:59:43.569Z,27.97
2019-02-18T05:02:16.579Z,23.10
2019-02-18T05:04:49.594Z,29.77
2019-02-18T05:07:22.555Z,32.43
2019-02-18T05:09:55.401Z,30.17
2019-02-18T05:12:28.411Z,36.67
2019-02-18T05:15:01.653Z,34.87
2019-02-18T05:17:34.706Z,27.83
2019-02-18T05:20:07.826Z,24.57
2019-02-18T05:22:40.683Z,25.53
2019-02-18T05:25:13.664Z,25.30
2019-02-18T05:27:46.930Z,40.37
2019-02-18T05:30:20.021Z,28.90
2019-02-18T05:32:53.225Z,27.00
2019-02-18T05:35:26.279Z,26.93
2019-02-18T05:37:59.409Z,24.87
